createdAt,value
2023-01-26T00:01:29.251Z,98518.34
2023-01-26T00:03:56.932Z,98535.81
2023-01-26T00:06:24.093Z,98532.06
2023-01-26T00:08:56.515Z,98520.03
2023-01-26T00:11:26.832Z,98532.00
2023-01-26T00:13:54.727Z,98520.06
2023-01-26T00:16:21.589Z,98522.16
2023-01-26T00:18:48.146Z,98508.69
2023-01-26T00:21:20.573Z,98512.44
2023-01-26T00:23:48.814Z,98512.22
2023-01-26T00:26:18.039Z,98520.19
2023-01-26T00:28:44.600Z,98507.22
2023-01-26T00:31:14.592Z,98503.72
2023-01-26T00:33:42.433Z,98516.38
2023-01-26T00:36:09.291Z,98518.06
2023-01-26T00:38:35.828Z,98492.53
2023-01-26T00:41:02.344Z,98504.47
2023-01-26T00:43:29.036Z,98512.28
2023-01-26T00:45:55.475Z,98509.19
2023-01-26T00:48:24.480Z,98504.38
2023-01-26T00:50:52.205Z,98512.94
2023-01-26T00:53:19.135Z,98505.44
2023-01-26T00:55:45.664Z,98504.56
2023-01-26T00:58:14.970Z,98499.03
2023-01-26T01:00:41.544Z,98502.69
2023-01-26T01:03:08.024Z,98487.13
2023-01-26T01:05:35.168Z,98503.47
2023-01-26T01:08:01.986Z,98491.41
2023-01-26T01:10:28.845Z,98503.53
2023-01-26T01:12:56.521Z,98494.56
2023-01-26T01:15:23.820Z,98496.00
2023-01-26T01:17:50.508Z,98481.66
2023-01-26T01:20:17.062Z,98478.19
2023-01-26T01:22:45.581Z,98492.84
2023-01-26T01:25:12.494Z,98499.56
2023-01-26T01:27:38.974Z,98501.19
2023-01-26T01:30:08.243Z,98499.31
2023-01-26T01:32:39.907Z,98492.44
2023-01-26T01:35:07.283Z,98495.41
2023-01-26T01:37:33.821Z,98496.06
2023-01-26T01:40:00.434Z,98484.47
2023-01-26T01:42:27.560Z,98498.41
2023-01-26T01:45:31.609Z,98501.06
2023-01-26T01:48:03.638Z,98486.66
2023-01-26T01:50:36.925Z,98496.25
2023-01-26T01:53:04.187Z,98486.72
2023-01-26T01:55:31.573Z,98491.94
2023-01-26T01:58:01.269Z,98471.84
2023-01-26T02:00:27.848Z,98485.81
2023-01-26T02:03:11.643Z,98473.66
2023-01-26T02:05:59.632Z,98482.84
2023-01-26T02:08:40.690Z,98478.34
2023-01-26T02:11:40.764Z,98483.25
2023-01-26T02:14:10.431Z,98474.06
2023-01-26T02:16:39.865Z,98470.69
2023-01-26T02:19:22.176Z,98473.94
2023-01-26T02:21:54.156Z,98455.19
2023-01-26T02:24:27.167Z,98456.44
2023-01-26T02:26:54.725Z,98465.22
2023-01-26T02:29:22.623Z,98452.13
2023-01-26T02:31:53.595Z,98465.97
2023-01-26T02:34:20.263Z,98458.13
2023-01-26T02:36:59.824Z,98448.19
2023-01-26T02:39:45.537Z,98444.28
2023-01-26T02:42:30.628Z,98446.81
2023-01-26T02:44:57.149Z,98451.00
2023-01-26T02:47:23.619Z,98452.34
2023-01-26T02:49:53.186Z,98437.53
2023-01-26T02:52:25.840Z,98439.00
2023-01-26T02:55:12.045Z,98450.84
2023-01-26T02:57:38.707Z,98427.56
2023-01-26T03:00:08.651Z,98432.59
2023-01-26T03:02:35.257Z,98431.84
2023-01-26T03:05:01.781Z,98425.59
2023-01-26T03:07:28.482Z,98413.88
2023-01-26T03:09:54.993Z,98406.19
2023-01-26T03:12:25.316Z,98422.00
2023-01-26T03:15:10.932Z,98408.09
2023-01-26T03:17:38.571Z,98415.00
2023-01-26T03:20:24.873Z,98388.63
2023-01-26T03:23:14.342Z,98410.84
2023-01-26T03:26:07.121Z,98403.00
2023-01-26T03:28:33.548Z,98393.41
2023-01-26T03:31:00.204Z,98383.59
2023-01-26T03:33:26.675Z,98388.19
2023-01-26T03:35:56.217Z,98411.16
2023-01-26T03:38:25.539Z,98407.88
2023-01-26T03:41:15.679Z,98396.28
2023-01-26T03:44:00.486Z,98387.75
2023-01-26T03:46:48.447Z,98393.72
2023-01-26T03:49:33.261Z,98391.47
2023-01-26T03:52:18.146Z,98384.69
2023-01-26T03:55:03.374Z,98385.81
2023-01-26T03:57:29.918Z,98400.41
2023-01-26T03:59:56.409Z,98385.81
2023-01-26T04:02:45.074Z,98389.63
2023-01-26T04:05:30.590Z,98399.84
2023-01-26T04:08:21.564Z,98381.34
2023-01-26T04:10:51.079Z,98387.53
2023-01-26T04:13:37.704Z,98379.38
2023-01-26T04:16:25.446Z,98363.53
2023-01-26T04:19:10.241Z,98373.97
2023-01-26T04:21:37.507Z,98348.09
2023-01-26T04:24:17.891Z,98371.44
2023-01-26T04:26:44.468Z,98364.47
2023-01-26T04:29:13.504Z,98378.19
2023-01-26T04:31:41.865Z,98379.84
2023-01-26T04:34:13.073Z,98361.84
2023-01-26T04:36:40.072Z,98368.44
2023-01-26T04:39:06.599Z,98372.50
2023-01-26T04:41:34.212Z,98372.69
2023-01-26T04:44:00.811Z,98352.66
2023-01-26T04:46:27.429Z,98365.19
2023-01-26T04:48:53.966Z,98357.56
2023-01-26T04:51:22.376Z,98362.41
2023-01-26T04:53:50.118Z,98363.53
2023-01-26T04:56:30.708Z,98360.72
2023-01-26T04:59:03.036Z,98355.78
2023-01-26T05:01:30.168Z,98362.56
2023-01-26T05:04:00.851Z,98336.25
2023-01-26T05:06:30.885Z,98351.91
2023-01-26T05:09:00.446Z,98354.47
2023-01-26T05:11:30.429Z,98335.81
2023-01-26T05:14:00.137Z,98350.66
2023-01-26T05:16:27.222Z,98342.81
2023-01-26T05:18:54.833Z,98343.94
2023-01-26T05:21:24.628Z,98344.47
2023-01-26T05:23:51.570Z,98336.22
2023-01-26T05:26:18.090Z,98335.84
2023-01-26T05:28:44.576Z,98331.25
2023-01-26T05:31:11.078Z,98331.03
2023-01-26T05:33:37.517Z,98331.34
2023-01-26T05:36:06.809Z,98340.25
2023-01-26T05:38:34.696Z,98339.31
2023-01-26T05:41:01.230Z,98340.84
2023-01-26T05:43:30.096Z,98318.97
2023-01-26T05:45:56.563Z,98340.63
2023-01-26T05:48:23.047Z,98335.75
2023-01-26T05:50:49.534Z,98326.13
2023-01-26T05:53:15.973Z,98332.59
2023-01-26T05:55:43.239Z,98317.91
2023-01-26T05:58:09.706Z,98315.19
2023-01-26T06:00:36.243Z,98320.91
2023-01-26T06:03:02.801Z,98322.94
2023-01-26T06:05:32.336Z,98330.63
2023-01-26T06:07:59.306Z,98324.28
2023-01-26T06:10:26.384Z,98313.41
2023-01-26T06:12:52.837Z,98317.16
2023-01-26T06:15:19.361Z,98323.22
2023-01-26T06:17:45.907Z,98318.59
2023-01-26T06:20:14.643Z,98319.81
2023-01-26T06:22:41.169Z,98310.00
2023-01-26T06:25:08.030Z,98323.03
2023-01-26T06:27:35.732Z,98330.28
2023-01-26T06:30:02.913Z,98315.69
2023-01-26T06:32:32.247Z,98286.13
2023-01-26T06:35:02.089Z,98317.66
2023-01-26T06:37:32.711Z,98313.03
2023-01-26T06:40:03.013Z,98318.22
2023-01-26T06:42:30.506Z,98323.22
2023-01-26T06:45:01.760Z,98310.03
2023-01-26T06:47:30.575Z,98314.31
2023-01-26T06:49:57.031Z,98311.84
2023-01-26T06:52:36.128Z,98300.34
2023-01-26T06:55:03.742Z,98320.50
2023-01-26T06:57:30.741Z,98317.63
2023-01-26T07:00:00.023Z,98318.69
2023-01-26T07:02:26.566Z,98297.88
2023-01-26T07:04:53.418Z,98333.81
2023-01-26T07:07:19.924Z,98321.72
2023-01-26T07:09:46.415Z,98320.63
2023-01-26T07:12:12.864Z,98302.00
2023-01-26T07:14:39.366Z,98315.22
2023-01-26T07:17:05.897Z,98314.28
2023-01-26T07:19:33.872Z,98316.28
2023-01-26T07:22:03.510Z,98325.72
2023-01-26T07:24:32.674Z,98329.81
2023-01-26T07:27:04.419Z,98305.53
2023-01-26T07:29:30.957Z,98336.16
2023-01-26T07:31:59.601Z,98329.72
2023-01-26T07:34:26.080Z,98323.50
2023-01-26T07:36:53.059Z,98334.97
2023-01-26T07:39:19.601Z,98322.88
2023-01-26T07:41:46.086Z,98334.09
2023-01-26T07:44:12.629Z,98330.22
2023-01-26T07:46:40.024Z,98328.25
2023-01-26T07:49:06.573Z,98324.50
2023-01-26T07:51:33.604Z,98326.19
2023-01-26T07:54:00.568Z,98284.72
2023-01-26T07:56:34.403Z,98301.16
2023-01-26T07:59:03.752Z,98297.47
2023-01-26T08:01:31.200Z,98328.72
2023-01-26T08:04:01.461Z,98326.50
2023-01-26T08:06:30.973Z,98327.16
2023-01-26T08:09:00.447Z,98313.56
2023-01-26T08:11:28.586Z,98319.72
2023-01-26T08:13:55.734Z,98324.00
2023-01-26T08:16:22.601Z,98336.53
2023-01-26T08:18:49.684Z,98331.47
2023-01-26T08:21:18.137Z,98327.25
2023-01-26T08:23:52.165Z,98319.72
2023-01-26T08:26:20.510Z,98320.09
2023-01-26T08:28:48.310Z,98339.16
2023-01-26T08:31:20.878Z,98338.22
2023-01-26T08:33:53.459Z,98338.22
2023-01-26T08:36:22.260Z,98330.66
2023-01-26T08:38:49.765Z,98336.50
2023-01-26T08:41:16.798Z,98326.28
2023-01-26T08:43:43.712Z,98331.25
2023-01-26T08:46:11.092Z,98327.75
2023-01-26T08:48:38.780Z,98310.03
2023-01-26T08:51:07.050Z,98341.81
2023-01-26T08:53:37.297Z,98341.25
2023-01-26T08:56:06.270Z,98339.97
2023-01-26T08:58:33.844Z,98348.13
2023-01-26T09:01:05.507Z,98351.81
2023-01-26T09:03:32.208Z,98335.47
2023-01-26T09:06:04.453Z,98338.88
2023-01-26T09:08:34.387Z,98331.25
2023-01-26T09:11:06.750Z,98352.47
2023-01-26T09:13:34.099Z,98337.66
2023-01-26T09:16:04.935Z,98334.13
2023-01-26T09:18:34.549Z,98334.56
2023-01-26T09:21:06.536Z,98324.66
2023-01-26T09:23:34.739Z,98336.63
2023-01-26T09:26:02.020Z,98346.63
2023-01-26T09:28:30.467Z,98351.84
2023-01-26T09:30:57.166Z,98348.75
2023-01-26T09:33:26.780Z,98350.72
2023-01-26T09:35:56.083Z,98357.06
2023-01-26T09:38:22.901Z,98347.56
2023-01-26T09:41:15.898Z,98363.28
2023-01-26T09:44:04.832Z,98353.56
2023-01-26T09:46:51.182Z,98360.91
2023-01-26T09:49:26.103Z,98351.00
2023-01-26T09:52:13.680Z,98358.13
2023-01-26T09:54:46.570Z,98359.28
2023-01-26T09:57:16.806Z,98358.22
2023-01-26T10:00:09.371Z,98345.78
2023-01-26T10:02:49.450Z,98359.28
2023-01-26T10:05:41.806Z,98362.72
2023-01-26T10:08:12.811Z,98358.88
2023-01-26T10:10:47.174Z,98359.59
2023-01-26T10:13:16.063Z,98367.13
2023-01-26T10:15:45.116Z,98347.63
2023-01-26T10:18:39.921Z,98365.47
2023-01-26T10:21:09.953Z,98365.19
2023-01-26T10:23:36.506Z,98363.59
2023-01-26T10:26:15.220Z,98345.34
2023-01-26T10:28:43.912Z,98363.19
2023-01-26T10:31:15.450Z,98353.59
2023-01-26T10:33:53.286Z,98346.16
2023-01-26T10:36:20.820Z,98337.59
2023-01-26T10:38:52.097Z,98331.34
2023-01-26T10:41:24.537Z,98352.53
2023-01-26T10:44:02.620Z,98355.44
2023-01-26T10:46:36.101Z,98344.66
2023-01-26T10:49:14.994Z,98346.47
2023-01-26T10:51:46.942Z,98343.84
2023-01-26T10:54:21.588Z,98339.50
2023-01-26T10:57:15.818Z,98330.91
2023-01-26T10:59:50.076Z,98324.22
2023-01-26T11:02:19.320Z,98336.13
2023-01-26T11:05:21.489Z,98344.59
2023-01-26T11:07:51.695Z,98317.91
2023-01-26T11:10:39.290Z,98323.03
2023-01-26T11:13:20.399Z,98305.06
2023-01-26T11:16:22.592Z,98324.81
2023-01-26T11:19:00.979Z,98329.28
2023-01-26T11:21:33.942Z,98326.47
2023-01-26T11:24:32.444Z,98322.19
2023-01-26T11:27:17.250Z,98318.13
2023-01-26T11:30:17.812Z,98303.63
2023-01-26T11:33:01.373Z,98309.06
2023-01-26T11:35:43.006Z,98319.41
2023-01-26T11:38:19.017Z,98313.56
2023-01-26T11:41:22.803Z,98313.56
2023-01-26T11:43:55.247Z,98313.25
2023-01-26T11:47:01.394Z,98310.44
2023-01-26T11:49:49.725Z,98319.84
2023-01-26T11:52:33.878Z,98315.25
2023-01-26T11:55:18.997Z,98313.25
2023-01-26T11:58:13.788Z,98298.00
2023-01-26T12:00:50.280Z,98304.06
2023-01-26T12:03:31.174Z,98272.41
2023-01-26T12:06:04.102Z,98258.41
2023-01-26T12:09:02.778Z,98305.59
2023-01-26T12:11:38.776Z,98281.31
2023-01-26T12:14:30.438Z,98287.75
2023-01-26T12:17:17.715Z,98290.53
2023-01-26T12:19:57.264Z,98297.75
2023-01-26T12:22:40.437Z,98291.84
2023-01-26T12:25:35.073Z,98293.47
2023-01-26T12:28:20.864Z,98291.63
2023-01-26T12:30:59.892Z,98287.13
2023-01-26T12:33:26.842Z,98280.56
2023-01-26T12:36:20.203Z,98269.47
2023-01-26T12:39:04.065Z,98259.25
2023-01-26T12:42:10.225Z,98278.78
2023-01-26T12:44:38.954Z,98278.56
2023-01-26T12:47:21.593Z,98264.56
2023-01-26T12:49:52.369Z,98277.94
2023-01-26T12:52:31.313Z,98257.44
2023-01-26T12:55:20.047Z,98271.13
2023-01-26T12:58:01.191Z,98274.72
2023-01-26T13:00:36.412Z,98270.13
2023-01-26T13:03:14.552Z,98269.22
2023-01-26T13:05:54.915Z,98251.66
2023-01-26T13:08:41.582Z,98264.78
2023-01-26T13:11:09.582Z,98267.97
2023-01-26T13:13:56.173Z,98259.44
2023-01-26T13:16:25.755Z,98261.22
2023-01-26T13:18:56.831Z,98249.84
2023-01-26T13:21:50.151Z,98239.72
2023-01-26T13:24:16.671Z,98253.06
2023-01-26T13:26:51.587Z,98245.75
2023-01-26T13:29:36.202Z,98247.97
2023-01-26T13:32:23.185Z,98247.13
2023-01-26T13:34:54.435Z,98246.50
2023-01-26T13:37:32.519Z,98228.44
2023-01-26T13:40:06.284Z,98239.41
2023-01-26T13:42:54.749Z,98245.47
2023-01-26T13:45:47.878Z,98226.25
2023-01-26T13:48:42.619Z,98229.59
2023-01-26T13:51:32.131Z,98231.16
2023-01-26T13:54:15.339Z,98231.84
2023-01-26T13:56:43.860Z,98240.53
2023-01-26T13:59:19.519Z,98183.59
2023-01-26T14:01:50.990Z,98198.88
2023-01-26T14:04:25.616Z,98236.31
2023-01-26T14:07:00.775Z,98217.41
2023-01-26T14:09:30.971Z,98239.69
2023-01-26T14:12:05.268Z,98247.09
2023-01-26T14:14:35.151Z,98245.84
2023-01-26T14:17:07.407Z,98249.06
2023-01-26T14:19:40.571Z,98247.84
2023-01-26T14:22:12.797Z,98232.91
2023-01-26T14:24:41.203Z,98247.72
2023-01-26T14:27:37.265Z,98238.47
2023-01-26T14:30:23.002Z,98229.38
2023-01-26T14:32:56.204Z,98255.59
2023-01-26T14:35:23.447Z,98237.84
2023-01-26T14:37:50.836Z,98248.91
2023-01-26T14:40:23.785Z,98247.72
2023-01-26T14:42:53.297Z,98237.78
2023-01-26T14:45:32.729Z,98239.56
2023-01-26T14:48:08.753Z,98247.28
2023-01-26T14:50:37.240Z,98249.16
2023-01-26T14:53:05.839Z,98248.44
2023-01-26T14:55:36.266Z,98245.91
2023-01-26T14:58:13.548Z,98212.41
2023-01-26T15:00:40.477Z,98233.56
2023-01-26T15:03:22.107Z,98244.63
2023-01-26T15:05:48.619Z,98242.34
2023-01-26T15:08:23.936Z,98246.66
2023-01-26T15:10:53.210Z,98259.22
2023-01-26T15:13:23.464Z,98258.09
2023-01-26T15:16:11.936Z,98241.28
2023-01-26T15:18:38.925Z,98245.88
2023-01-26T15:21:05.783Z,98255.41
2023-01-26T15:23:37.517Z,98236.06
2023-01-26T15:26:11.593Z,98245.53
2023-01-26T15:28:38.761Z,98270.84
2023-01-26T15:31:05.733Z,98269.56
2023-01-26T15:33:46.136Z,98278.41
2023-01-26T15:36:47.488Z,98271.75
2023-01-26T15:39:19.019Z,98263.78
2023-01-26T15:41:58.347Z,98279.28
2023-01-26T15:44:24.971Z,98287.09
2023-01-26T15:46:51.529Z,98269.09
2023-01-26T15:49:20.060Z,98284.38
2023-01-26T15:51:46.498Z,98281.56
2023-01-26T15:54:12.929Z,98283.66
2023-01-26T15:56:39.459Z,98280.94
2023-01-26T15:59:05.914Z,98282.28
2023-01-26T16:01:36.583Z,98285.69
2023-01-26T16:04:05.973Z,98302.53
2023-01-26T16:06:34.757Z,98299.75
2023-01-26T16:09:04.405Z,98289.88
2023-01-26T16:11:52.765Z,98283.78
2023-01-26T16:14:19.620Z,98289.47
2023-01-26T16:16:46.249Z,98306.66
2023-01-26T16:19:26.231Z,98300.91
2023-01-26T16:22:01.055Z,98302.91
2023-01-26T16:24:27.570Z,98297.91
2023-01-26T16:26:54.812Z,98288.22
2023-01-26T16:29:21.808Z,98295.19
2023-01-26T16:31:48.397Z,98294.41
2023-01-26T16:34:14.912Z,98300.97
2023-01-26T16:36:41.378Z,98301.72
2023-01-26T16:39:07.789Z,98294.84
2023-01-26T16:41:34.271Z,98306.19
2023-01-26T16:44:02.623Z,98303.84
2023-01-26T16:46:30.361Z,98300.91
2023-01-26T16:48:57.308Z,98302.09
2023-01-26T16:51:27.894Z,98298.44
2023-01-26T16:53:55.471Z,98299.94
2023-01-26T16:56:23.555Z,98305.63
2023-01-26T16:58:50.087Z,98296.16
2023-01-26T17:01:28.336Z,98305.28
2023-01-26T17:03:56.030Z,98295.97
2023-01-26T17:06:22.993Z,98284.44
2023-01-26T17:08:49.854Z,98302.56
2023-01-26T17:11:19.225Z,98314.59
2023-01-26T17:13:46.801Z,98293.19
2023-01-26T17:16:19.704Z,98305.81
2023-01-26T17:18:47.529Z,98298.47
2023-01-26T17:21:15.717Z,98310.38
2023-01-26T17:23:44.398Z,98297.66
2023-01-26T17:26:15.212Z,98282.41
2023-01-26T17:28:41.788Z,98292.47
2023-01-26T17:31:13.643Z,98303.16
2023-01-26T17:33:40.196Z,98315.88
2023-01-26T17:36:07.997Z,98305.63
2023-01-26T17:38:34.546Z,98315.03
2023-01-26T17:41:01.252Z,98319.22
2023-01-26T17:43:28.171Z,98319.88
2023-01-26T17:46:08.677Z,98309.38
2023-01-26T17:48:38.209Z,98316.34
2023-01-26T17:51:09.575Z,98313.63
2023-01-26T17:53:40.445Z,98296.69
2023-01-26T17:56:14.803Z,98301.72
2023-01-26T17:58:41.658Z,98302.94
2023-01-26T18:01:09.936Z,98299.13
2023-01-26T18:03:40.583Z,98317.28
2023-01-26T18:06:10.855Z,98309.06
2023-01-26T18:08:41.584Z,98319.47
2023-01-26T18:11:10.689Z,98323.50
2023-01-26T18:13:41.480Z,98314.91
2023-01-26T18:16:13.549Z,98322.66
2023-01-26T18:18:40.120Z,98311.81
2023-01-26T18:21:15.098Z,98326.16
2023-01-26T18:23:45.073Z,98343.72
2023-01-26T18:26:11.581Z,98335.94
2023-01-26T18:28:40.753Z,98331.47
2023-01-26T18:31:12.674Z,98319.75
2023-01-26T18:33:43.830Z,98332.44
2023-01-26T18:36:13.317Z,98311.81
2023-01-26T18:38:53.652Z,98332.31
2023-01-26T18:41:22.535Z,98311.53
2023-01-26T18:43:54.252Z,98322.88
2023-01-26T18:46:24.919Z,98335.16
2023-01-26T18:49:00.955Z,98347.25
2023-01-26T18:51:29.895Z,98342.78
2023-01-26T18:53:57.309Z,98341.91
2023-01-26T18:56:24.250Z,98344.84
2023-01-26T18:58:54.716Z,98348.19
2023-01-26T19:01:26.318Z,98352.56
2023-01-26T19:03:57.827Z,98334.94
2023-01-26T19:06:26.522Z,98294.75
2023-01-26T19:09:04.871Z,98285.34
2023-01-26T19:11:39.546Z,98288.75
2023-01-26T19:14:11.709Z,98339.50
2023-01-26T19:16:43.213Z,98351.91
2023-01-26T19:19:11.844Z,98365.13
2023-01-26T19:21:45.503Z,98365.31
2023-01-26T19:24:12.062Z,98353.53
2023-01-26T19:26:41.044Z,98348.69
2023-01-26T19:29:07.572Z,98353.41
2023-01-26T19:31:35.686Z,98354.50
2023-01-26T19:34:05.473Z,98355.03
2023-01-26T19:36:34.294Z,98345.53
2023-01-26T19:39:01.603Z,98341.00
2023-01-26T19:41:28.213Z,98337.59
2023-01-26T19:43:54.681Z,98333.84
2023-01-26T19:46:22.005Z,98346.59
2023-01-26T19:48:49.101Z,98350.38
2023-01-26T19:51:20.423Z,98348.44
2023-01-26T19:53:52.769Z,98353.75
2023-01-26T19:56:24.808Z,98353.28
2023-01-26T19:58:59.829Z,98351.91
2023-01-26T20:01:30.210Z,98352.09
2023-01-26T20:04:02.117Z,98346.03
2023-01-26T20:06:30.834Z,98345.56
2023-01-26T20:08:58.257Z,98341.28
2023-01-26T20:11:25.244Z,98343.53
2023-01-26T20:13:59.289Z,98342.31
2023-01-26T20:16:29.825Z,98349.94
2023-01-26T20:18:58.702Z,98340.72
2023-01-26T20:21:26.417Z,98343.16
2023-01-26T20:23:55.364Z,98347.34
2023-01-26T20:26:23.673Z,98349.81
2023-01-26T20:28:52.214Z,98339.94
2023-01-26T20:31:21.841Z,98340.59
2023-01-26T20:33:50.095Z,98342.28
2023-01-26T20:36:19.851Z,98349.31
2023-01-26T20:38:48.699Z,98337.50
2023-01-26T20:41:18.654Z,98345.22
2023-01-26T20:43:58.569Z,98346.72
2023-01-26T20:46:29.410Z,98344.88
2023-01-26T20:48:56.900Z,98346.63
2023-01-26T20:51:28.708Z,98338.38
2023-01-26T20:53:56.045Z,98347.78
2023-01-26T20:56:23.204Z,98347.59
2023-01-26T20:58:53.158Z,98335.97
2023-01-26T21:01:19.823Z,98339.97
2023-01-26T21:03:46.405Z,98331.38
2023-01-26T21:06:15.556Z,98319.38
2023-01-26T21:08:42.138Z,98336.25
2023-01-26T21:11:11.873Z,98344.56
2023-01-26T21:13:41.171Z,98324.28
2023-01-26T21:16:17.520Z,98318.47
2023-01-26T21:18:45.363Z,98326.47
2023-01-26T21:21:19.166Z,98319.38
2023-01-26T21:23:46.301Z,98331.72
2023-01-26T21:26:15.761Z,98331.72
2023-01-26T21:28:42.273Z,98317.31
2023-01-26T21:31:15.426Z,98315.75
2023-01-26T21:33:46.936Z,98312.91
2023-01-26T21:36:16.357Z,98315.63
2023-01-26T21:38:44.786Z,98313.97
2023-01-26T21:41:42.502Z,98311.63
2023-01-26T21:44:12.706Z,98315.78
2023-01-26T21:46:42.089Z,98310.66
2023-01-26T21:49:09.439Z,98314.78
2023-01-26T21:51:54.892Z,98302.16
2023-01-26T21:54:21.640Z,98301.34
2023-01-26T21:56:48.708Z,98297.00
2023-01-26T21:59:17.746Z,98290.41
2023-01-26T22:01:47.101Z,98285.63
2023-01-26T22:04:23.289Z,98291.50
2023-01-26T22:06:52.258Z,98298.84
2023-01-26T22:09:19.175Z,98281.94
2023-01-26T22:11:45.792Z,98291.38
2023-01-26T22:14:15.519Z,98295.16
2023-01-26T22:16:43.869Z,98284.00
2023-01-26T22:19:11.662Z,98291.97
2023-01-26T22:21:38.716Z,98293.78
2023-01-26T22:24:06.793Z,98280.91
2023-01-26T22:26:33.584Z,98294.97
2023-01-26T22:29:00.501Z,98296.91
2023-01-26T22:31:28.934Z,98304.34
2023-01-26T22:33:58.111Z,98307.88
2023-01-26T22:36:25.924Z,98308.16
2023-01-26T22:38:53.320Z,98305.94
2023-01-26T22:41:25.579Z,98284.34
2023-01-26T22:43:55.323Z,98291.91
2023-01-26T22:46:23.659Z,98303.69
2023-01-26T22:48:51.279Z,98302.78
2023-01-26T22:51:26.659Z,98284.44
2023-01-26T22:53:54.630Z,98295.41
2023-01-26T22:56:21.878Z,98303.22
2023-01-26T22:58:58.913Z,98299.34
2023-01-26T23:01:31.616Z,98295.91
2023-01-26T23:03:58.928Z,98292.16
2023-01-26T23:06:26.105Z,98295.50
2023-01-26T23:08:53.194Z,98294.78
2023-01-26T23:11:22.292Z,98296.56
2023-01-26T23:13:50.795Z,98291.97
2023-01-26T23:16:17.498Z,98289.78
2023-01-26T23:18:44.496Z,98282.41
2023-01-26T23:21:11.598Z,98281.72
2023-01-26T23:23:39.204Z,98300.56
2023-01-26T23:26:06.502Z,98302.41
2023-01-26T23:28:35.533Z,98291.31
2023-01-26T23:31:02.533Z,98289.91
2023-01-26T23:33:30.923Z,98290.66
2023-01-26T23:35:58.087Z,98272.88
2023-01-26T23:38:26.897Z,98266.28
2023-01-26T23:40:54.684Z,98263.09
2023-01-26T23:43:21.651Z,98267.25
2023-01-26T23:45:51.945Z,98282.19
2023-01-26T23:48:21.155Z,98282.84
2023-01-26T23:50:48.170Z,98269.72
2023-01-26T23:53:15.015Z,98283.03
2023-01-26T23:55:43.015Z,98272.28
2023-01-26T23:58:12.057Z,98278.25
